Time;durP1;ratioP1;P1;durP2;ratioP2;P2;SDS_P1;SDS_P2;PMS_P1;PMS_P2;Temp;Humidity;BMP_temperature;BMP_pressure;BME280_temperature;BME280_humidity;BME280_pressure;Samples;Min_cycle;Max_cycle;Signal;HPM_P1;HPM_P2
2022/04/10 00:01:31;;;;;;;29.02;13.63;;;2.70;99.90;;;;;;5028666;28;20171;-52
2022/04/10 00:03:57;;;;;;;31.88;13.88;;;2.60;99.90;;;;;;5028549;28;20032;-51
2022/04/10 00:06:24;;;;;;;34.58;16.65;;;2.50;99.90;;;;;;5028395;28;20040;-51
2022/04/10 00:08:50;;;;;;;40.28;18.40;;;2.40;99.90;;;;;;5028533;28;20210;-52
2022/04/10 00:11:16;;;;;;;43.42;19.38;;;2.40;99.90;;;;;;5028465;28;20061;-50
2022/04/10 00:13:42;;;;;;;43.83;18.48;;;2.50;99.90;;;;;;5028483;28;20029;-51
2022/04/10 00:16:08;;;;;;;40.50;19.98;;;2.40;99.90;;;;;;5028460;28;20029;-54
2022/04/10 00:18:36;;;;;;;36.80;18.57;;;2.40;99.90;;;;;;5028355;28;20030;-52
2022/04/10 00:21:03;;;;;;;38.42;18.33;;;2.40;99.90;;;;;;5028382;28;20280;-51
2022/04/10 00:23:29;;;;;;;38.03;18.92;;;2.50;99.90;;;;;;5028259;28;20115;-50
2022/04/10 00:25:54;;;;;;;40.42;18.25;;;2.50;99.90;;;;;;5028115;28;20084;-52
2022/04/10 00:28:20;;;;;;;34.70;17.10;;;2.50;99.90;;;;;;5028394;28;20029;-51
2022/04/10 00:30:46;;;;;;;32.72;16.17;;;2.50;99.90;;;;;;5028472;28;20030;-51
2022/04/10 00:33:11;;;;;;;36.33;17.40;;;2.50;99.90;;;;;;5028588;28;20049;-52
2022/04/10 00:35:37;;;;;;;36.17;17.13;;;2.40;99.90;;;;;;5028301;28;20025;-52
2022/04/10 00:38:03;;;;;;;32.28;16.00;;;2.40;99.90;;;;;;5028097;28;20377;-51
2022/04/10 00:40:29;;;;;;;27.05;14.88;;;2.50;99.90;;;;;;5028637;28;20022;-50
2022/04/10 00:42:55;;;;;;;29.48;15.80;;;2.40;99.90;;;;;;5028147;28;20376;-51
2022/04/10 00:45:23;;;;;;;28.95;15.23;;;2.50;99.90;;;;;;5029491;28;20164;-52
2022/04/10 00:47:49;;;;;;;30.35;15.30;;;2.40;99.90;;;;;;5032368;28;20018;-51
2022/04/10 00:50:17;;;;;;;35.15;16.25;;;2.40;99.90;;;;;;5031977;28;20094;-50
2022/04/10 00:52:45;;;;;;;33.30;17.83;;;2.40;99.90;;;;;;5032375;28;20026;-53
2022/04/10 00:55:11;;;;;;;36.17;16.58;;;2.40;99.90;;;;;;5031741;28;20595;-52
2022/04/10 00:57:37;;;;;;;38.95;17.48;;;2.30;99.90;;;;;;5032027;28;20041;-52
2022/04/10 01:00:10;;;;;;;28.05;15.18;;;2.30;99.90;;;;;;5032099;28;20029;-52
2022/04/10 01:02:37;;;;;;;29.58;15.63;;;2.20;99.90;;;;;;5032073;28;20099;-51
2022/04/10 01:05:04;;;;;;;28.02;15.77;;;2.20;99.90;;;;;;5031871;28;20103;-51
2022/04/10 01:07:30;;;;;;;34.03;17.20;;;2.20;99.90;;;;;;5031795;28;20044;-52
2022/04/10 01:09:56;;;;;;;36.08;18.30;;;2.20;99.90;;;;;;5031924;28;20021;-52
2022/04/10 01:12:22;;;;;;;32.75;19.17;;;2.10;99.90;;;;;;5031361;28;20090;-50
2022/04/10 01:14:49;;;;;;;42.03;19.88;;;2.10;99.90;;;;;;5031656;28;20587;-49
2022/04/10 01:17:15;;;;;;;35.08;19.10;;;2.20;99.90;;;;;;5031437;28;20100;-51
2022/04/10 01:19:42;;;;;;;33.93;19.67;;;2.10;99.90;;;;;;5031388;28;20038;-51
2022/04/10 01:22:09;;;;;;;35.30;19.60;;;2.10;99.90;;;;;;5031478;28;20033;-50
2022/04/10 01:24:36;;;;;;;;;;;2.20;99.90;;;;;;5031984;28;20116;-53
2022/04/10 01:27:02;;;;;;;35.17;19.38;;;2.10;99.90;;;;;;5029112;28;20008;-53
2022/04/10 01:29:28;;;;;;;35.87;19.33;;;2.10;99.90;;;;;;5011515;28;20109;-51
2022/04/10 01:31:55;;;;;;;34.60;18.88;;;2.00;99.90;;;;;;5011354;28;20096;-52
2022/04/10 01:34:21;;;;;;;41.72;22.25;;;1.90;99.90;;;;;;5011490;28;20795;-50
2022/04/10 01:36:46;;;;;;;43.10;23.15;;;2.00;99.90;;;;;;4993633;28;20033;-50
2022/04/10 01:39:15;;;;;;;42.63;23.48;;;1.90;99.90;;;;;;5011203;28;20544;-52
2022/04/10 01:41:41;;;;;;;48.63;24.77;;;1.90;99.90;;;;;;5011522;28;20105;-51
2022/04/10 01:44:09;;;;;;;44.30;23.02;;;1.90;99.90;;;;;;5011354;28;20075;-52
2022/04/10 01:46:34;;;;;;;;;;;2.00;99.90;;;;;;5011839;28;20030;-52
2022/04/10 01:49:01;;;;;;;44.88;23.38;;;2.00;99.90;;;;;;5011339;28;19932;-52
2022/04/10 01:51:27;;;;;;;43.42;22.25;;;2.10;99.90;;;;;;5011300;28;20029;-50
2022/04/10 01:53:54;;;;;;;42.35;24.88;;;2.00;99.90;;;;;;5024538;28;20026;-51
2022/04/10 01:56:20;;;;;;;48.97;25.50;;;2.00;99.90;;;;;;5029954;28;20591;-52
2022/04/10 01:58:47;;;;;;;31.17;19.67;;;1.90;99.90;;;;;;5030905;28;20025;-51
2022/04/10 02:01:14;;;;;;;28.13;17.70;;;1.90;99.90;;;;;;5030750;28;20045;-52
2022/04/10 02:03:41;;;;;;;29.33;17.98;;;1.90;99.90;;;;;;5030971;28;20088;-50
2022/04/10 02:06:09;;;;;;;29.92;16.35;;;1.80;99.90;;;;;;5030818;28;20136;-52
2022/04/10 02:08:38;;;;;;;28.85;17.42;;;1.80;99.90;;;;;;5031050;28;20029;-51
2022/04/10 02:11:14;;;;;;;31.52;17.52;;;1.60;99.90;;;;;;5030637;28;20025;-52
2022/04/10 02:13:42;;;;;;;30.85;16.77;;;1.60;99.90;;;;;;5030700;28;20025;-51
2022/04/10 02:16:10;;;;;;;;;;;1.60;99.90;;;;;;5031407;28;20041;-51
2022/04/10 02:18:36;;;;;;;32.92;18.60;;;1.40;99.90;;;;;;5030661;28;19909;-52
2022/04/10 02:21:03;;;;;;;31.55;18.58;;;1.20;99.90;;;;;;5030332;28;20029;-52
2022/04/10 02:23:29;;;;;;;30.73;18.55;;;1.10;99.90;;;;;;5030511;28;20493;-52
2022/04/10 02:25:55;;;;;;;32.10;18.95;;;1.10;99.90;;;;;;5030569;28;20037;-52
2022/04/10 02:28:21;;;;;;;35.67;19.20;;;1.10;99.90;;;;;;5030346;28;20053;-51
2022/04/10 02:30:47;;;;;;;28.63;17.63;;;1.20;99.90;;;;;;5030509;28;20025;-52
2022/04/10 02:33:12;;;;;;;29.45;17.90;;;1.20;99.90;;;;;;5030518;28;20021;-52
2022/04/10 02:35:40;;;;;;;32.05;17.38;;;1.20;99.90;;;;;;5030478;28;20035;-52
2022/04/10 02:38:06;;;;;;;27.38;16.58;;;1.20;99.90;;;;;;5030275;28;20729;-52
2022/04/10 02:40:32;;;;;;;32.08;16.77;;;1.20;99.90;;;;;;5030151;28;20688;-52
2022/04/10 02:42:57;;;;;;;28.70;16.55;;;1.20;99.90;;;;;;5029797;28;20029;-51
2022/04/10 02:45:23;;;;;;;31.42;17.88;;;1.30;99.90;;;;;;5030399;28;20025;-50
2022/04/10 02:47:49;;;;;;;37.28;18.35;;;1.30;99.90;;;;;;5028698;28;20765;-51
2022/04/10 02:50:14;;;;;;;30.92;18.45;;;1.30;99.90;;;;;;5029930;28;20758;-52
2022/04/10 02:52:41;;;;;;;28.80;18.02;;;1.40;99.90;;;;;;5030038;28;20079;-50
2022/04/10 02:55:08;;;;;;;31.43;18.63;;;1.30;99.90;;;;;;5029458;28;20064;-52
2022/04/10 02:57:34;;;;;;;31.90;19.15;;;1.30;99.90;;;;;;5029663;28;20500;-51
2022/04/10 03:00:00;;;;;;;34.75;19.52;;;1.20;99.90;;;;;;5026784;28;20029;-52
2022/04/10 03:02:26;;;;;;;29.65;19.20;;;1.20;99.90;;;;;;5029881;28;20030;-53
2022/04/10 03:04:52;;;;;;;31.23;18.92;;;1.30;99.90;;;;;;5029597;28;20021;-52
2022/04/10 03:07:18;;;;;;;36.90;19.77;;;1.30;99.90;;;;;;5028974;28;20029;-53
2022/04/10 03:09:43;;;;;;;30.50;18.13;;;1.40;99.90;;;;;;5029324;28;20038;-50
2022/04/10 03:12:09;;;;;;;30.55;17.85;;;1.40;99.90;;;;;;5029704;28;20028;-50
2022/04/10 03:14:35;;;;;;;26.88;15.63;;;1.40;99.90;;;;;;5029763;28;20116;-51
2022/04/10 03:17:01;;;;;;;38.70;19.17;;;1.30;99.90;;;;;;5029619;28;20441;-51
2022/04/10 03:19:28;;;;;;;32.15;17.13;;;1.30;99.90;;;;;;5029433;28;20018;-52
2022/04/10 03:21:54;;;;;;;38.58;19.60;;;1.40;99.90;;;;;;5029478;28;20029;-52
2022/04/10 03:24:20;;;;;;;31.10;18.05;;;1.30;99.90;;;;;;5029459;28;20124;-52
2022/04/10 03:26:46;;;;;;;29.00;17.52;;;1.50;99.90;;;;;;5029383;28;20343;-52
2022/04/10 03:29:12;;;;;;;34.30;18.52;;;1.60;99.90;;;;;;5029556;28;20029;-52
2022/04/10 03:31:39;;;;;;;30.13;16.95;;;1.60;99.90;;;;;;5011446;28;20029;-52
2022/04/10 03:34:04;;;;;;;27.45;16.77;;;1.60;99.90;;;;;;5029299;28;20171;-52
2022/04/10 03:36:30;;;;;;;25.15;16.58;;;1.60;99.90;;;;;;5029163;28;20144;-51
2022/04/10 03:38:56;;;;;;;29.70;17.13;;;1.70;99.90;;;;;;5029432;28;20045;-52
2022/04/10 03:41:22;;;;;;;29.50;17.75;;;1.60;99.90;;;;;;5011342;28;20265;-51
2022/04/10 03:43:47;;;;;;;24.60;15.75;;;1.50;99.90;;;;;;5029158;28;20032;-51
2022/04/10 03:46:13;;;;;;;29.73;16.35;;;1.50;99.90;;;;;;5029108;28;20609;-53
2022/04/10 03:48:39;;;;;;;27.30;16.00;;;1.60;99.90;;;;;;5029004;28;20029;-52
2022/04/10 03:51:04;;;;;;;25.95;15.48;;;1.50;99.90;;;;;;5028877;28;20040;-52
2022/04/10 03:53:30;;;;;;;32.60;18.10;;;1.50;99.90;;;;;;5028794;28;20120;-52
2022/04/10 03:55:56;;;;;;;27.90;16.15;;;1.50;99.90;;;;;;5027929;28;20124;-52
2022/04/10 03:58:21;;;;;;;30.40;17.13;;;1.50;99.90;;;;;;5044177;28;20120;-52
2022/04/10 04:00:47;;;;;;;37.83;20.95;;;1.50;99.90;;;;;;5028557;28;20033;-51
2022/04/10 04:03:14;;;;;;;40.40;20.58;;;1.50;99.90;;;;;;5028779;28;20370;-52
2022/04/10 04:05:39;;;;;;;32.42;18.83;;;1.50;99.90;;;;;;5028508;28;20033;-52
2022/04/10 04:08:05;;;;;;;27.25;17.15;;;1.50;99.90;;;;;;5028703;28;20044;-53
2022/04/10 04:10:32;;;;;;;30.90;18.85;;;1.40;99.90;;;;;;5027065;28;20076;-51
2022/04/10 04:12:58;;;;;;;26.70;17.53;;;1.40;99.90;;;;;;5028865;28;20024;-52
2022/04/10 04:15:24;;;;;;;33.43;18.67;;;1.40;99.90;;;;;;5028599;28;20032;-52
2022/04/10 04:17:50;;;;;;;33.88;20.35;;;1.40;99.90;;;;;;5028551;28;20030;-53
2022/04/10 04:20:15;;;;;;;30.02;18.85;;;1.40;99.90;;;;;;5028254;28;20260;-53
2022/04/10 04:22:42;;;;;;;26.70;17.75;;;1.30;99.90;;;;;;5028670;28;20508;-52
2022/04/10 04:25:08;;;;;;;24.60;17.05;;;1.30;99.90;;;;;;5027155;28;20113;-54
2022/04/10 04:27:33;;;;;;;26.65;18.02;;;1.30;99.90;;;;;;5028420;28;20756;-52
2022/04/10 04:30:01;;;;;;;31.25;19.67;;;1.20;99.90;;;;;;5028644;28;20063;-51
2022/04/10 04:32:27;;;;;;;32.63;19.08;;;1.30;99.90;;;;;;5028192;28;20041;-52
2022/04/10 04:34:53;;;;;;;27.67;18.27;;;1.30;99.90;;;;;;5028522;28;20033;-53
2022/04/10 04:37:18;;;;;;;26.27;16.52;;;1.30;99.90;;;;;;5028002;28;20508;-53
2022/04/10 04:39:44;;;;;;;25.00;16.23;;;1.30;99.90;;;;;;5028590;28;20029;-53
2022/04/10 04:42:10;;;;;;;26.70;15.73;;;1.40;99.90;;;;;;5028357;28;20029;-53
2022/04/10 04:44:35;;;;;;;25.17;15.25;;;1.40;99.90;;;;;;5028211;28;20025;-54
2022/04/10 04:47:01;;;;;;;23.02;13.60;;;1.50;99.90;;;;;;5028227;28;20112;-53
2022/04/10 04:49:27;;;;;;;26.27;13.75;;;1.60;99.90;;;;;;5026527;28;20156;-52
2022/04/10 04:51:53;;;;;;;19.73;11.65;;;1.60;99.90;;;;;;5028021;28;20033;-53
2022/04/10 04:54:19;;;;;;;20.60;11.43;;;1.70;99.90;;;;;;5019075;28;20044;-54
2022/04/10 04:56:45;;;;;;;21.95;13.35;;;1.80;99.90;;;;;;5028101;28;20053;-52
2022/04/10 04:59:14;;;;;;;24.88;15.00;;;1.80;99.90;;;;;;5028243;28;20113;-51
2022/04/10 05:01:44;;;;;;;23.20;13.93;;;1.90;99.90;;;;;;5028084;28;20036;-52
2022/04/10 05:04:10;;;;;;;26.13;14.85;;;1.90;99.90;;;;;;5028454;28;20152;-53
2022/04/10 05:06:37;;;;;;;22.23;12.93;;;2.00;99.90;;;;;;5028396;28;20149;-52
2022/04/10 05:09:03;;;;;;;21.47;14.47;;;2.00;99.90;;;;;;5028299;28;20036;-52
2022/04/10 05:11:29;;;;;;;20.77;13.13;;;2.10;99.90;;;;;;5028221;28;20280;-52
2022/04/10 05:13:55;;;;;;;24.15;12.48;;;2.10;99.90;;;;;;5028443;28;20033;-50
2022/04/10 05:16:22;;;;;;;20.23;13.10;;;2.20;99.90;;;;;;5028375;28;20045;-51
2022/04/10 05:18:48;;;;;;;25.23;12.77;;;2.20;99.90;;;;;;5027933;28;20083;-51
2022/04/10 05:21:14;;;;;;;23.88;13.13;;;2.30;99.90;;;;;;5026757;28;20519;-51
2022/04/10 05:23:40;;;;;;;22.00;13.30;;;2.30;99.90;;;;;;5028183;28;20079;-52
2022/04/10 05:26:06;;;;;;;23.30;13.27;;;2.40;99.90;;;;;;5027842;28;20104;-52
2022/04/10 05:28:34;;;;;;;22.42;13.93;;;2.50;99.90;;;;;;5028073;28;20031;-52
2022/04/10 05:31:03;;;;;;;22.88;14.15;;;2.50;99.90;;;;;;5028726;28;20091;-51
2022/04/10 05:33:32;;;;;;;23.02;13.15;;;2.50;99.90;;;;;;5031384;28;20021;-52
2022/04/10 05:35:58;;;;;;;20.90;14.20;;;2.60;99.90;;;;;;5030434;28;20057;-51
2022/04/10 05:38:24;;;;;;;19.67;12.57;;;2.60;99.90;;;;;;5031567;28;20422;-52
2022/04/10 05:40:53;;;;;;;20.73;13.13;;;2.60;99.90;;;;;;5031476;28;20033;-51
2022/04/10 05:43:23;;;;;;;22.08;15.27;;;2.70;99.90;;;;;;5030078;28;20025;-53
2022/04/10 05:45:49;;;;;;;22.58;12.88;;;2.80;99.90;;;;;;5031460;28;20038;-53
2022/04/10 05:48:15;;;;;;;16.30;11.20;;;2.90;99.90;;;;;;5031198;28;20028;-50
2022/04/10 05:50:42;;;;;;;20.90;11.23;;;2.90;99.90;;;;;;5031405;28;20037;-51
2022/04/10 05:53:07;;;;;;;18.35;11.18;;;3.00;99.90;;;;;;5031300;28;20098;-51
2022/04/10 05:55:33;;;;;;;18.55;11.43;;;3.00;99.90;;;;;;5013272;28;20045;-53
2022/04/10 05:58:01;;;;;;;21.00;12.68;;;3.00;99.90;;;;;;5031477;28;20098;-52
2022/04/10 06:00:27;;;;;;;21.15;12.40;;;3.00;99.90;;;;;;5030954;28;20035;-52
2022/04/10 06:02:53;;;;;;;23.40;13.38;;;3.00;99.90;;;;;;5030720;28;20507;-52
2022/04/10 06:05:19;;;;;;;20.13;12.75;;;3.00;99.90;;;;;;5031174;28;20021;-53
2022/04/10 06:07:45;;;;;;;20.98;12.65;;;3.00;99.90;;;;;;5031223;28;20029;-51
2022/04/10 06:10:11;;;;;;;20.70;12.38;;;3.00;99.90;;;;;;5031106;28;20045;-53
2022/04/10 06:12:37;;;;;;;20.30;12.57;;;3.10;99.90;;;;;;5031049;28;20021;-51
2022/04/10 06:15:03;;;;;;;18.38;11.43;;;3.10;99.90;;;;;;5030723;28;20107;-52
2022/04/10 06:17:30;;;;;;;19.33;11.20;;;3.10;99.90;;;;;;5030452;28;20025;-52
2022/04/10 06:19:59;;;;;;;17.45;10.68;;;3.20;99.90;;;;;;5030932;28;20084;-51
2022/04/10 06:22:25;;;;;;;20.75;12.55;;;3.30;99.90;;;;;;5030594;28;20041;-53
2022/04/10 06:24:51;;;;;;;20.40;11.63;;;3.30;99.90;;;;;;5030422;28;20033;-52
2022/04/10 06:27:17;;;;;;;19.60;12.77;;;3.40;99.90;;;;;;5030718;28;20053;-53
2022/04/10 06:29:42;;;;;;;19.65;11.85;;;3.40;99.90;;;;;;5030501;28;20268;-52
2022/04/10 06:32:08;;;;;;;19.20;11.43;;;3.50;99.90;;;;;;5030297;28;20030;-52
2022/04/10 06:34:34;;;;;;;21.17;12.40;;;3.60;99.90;;;;;;5030292;28;20028;-51
2022/04/10 06:37:07;;;;;;;20.33;11.93;;;3.70;99.90;;;;;;5030461;28;20029;-52
2022/04/10 06:39:34;;;;;;;17.55;10.48;;;3.90;99.90;;;;;;5030645;28;20018;-51
2022/04/10 06:41:59;;;;;;;21.20;10.30;;;3.90;99.90;;;;;;5030001;28;20029;-52
2022/04/10 06:44:25;;;;;;;19.10;9.93;;;3.90;99.90;;;;;;5030108;28;20036;-52
2022/04/10 06:46:51;;;;;;;21.13;10.50;;;3.90;99.90;;;;;;5030160;28;20053;-52
2022/04/10 06:49:18;;;;;;;16.63;10.43;;;4.00;99.90;;;;;;5030328;28;20040;-52
2022/04/10 06:51:43;;;;;;;18.40;8.63;;;4.10;99.90;;;;;;5030184;28;20069;-52
2022/04/10 06:54:09;;;;;;;15.65;8.60;;;4.20;99.90;;;;;;5030169;28;20078;-52
2022/04/10 06:56:35;;;;;;;17.30;7.97;;;4.20;99.90;;;;;;5029856;28;20132;-52
2022/04/10 06:59:01;;;;;;;11.68;6.68;;;4.20;99.90;;;;;;5030313;28;20048;-52
2022/04/10 07:01:26;;;;;;;13.38;7.03;;;4.30;99.90;;;;;;5030168;28;20481;-52
2022/04/10 07:03:52;;;;;;;19.80;8.25;;;4.40;99.90;;;;;;5029816;28;20026;-50
2022/04/10 07:06:18;;;;;;;12.10;6.60;;;4.50;99.90;;;;;;5029729;28;20069;-52
2022/04/10 07:08:43;;;;;;;16.35;7.20;;;4.50;99.90;;;;;;5028414;28;20029;-51
2022/04/10 07:11:09;;;;;;;17.77;7.05;;;4.60;99.90;;;;;;5028685;28;20088;-52
2022/04/10 07:13:35;;;;;;;14.55;7.20;;;4.70;99.90;;;;;;5029537;28;20022;-52
2022/04/10 07:16:00;;;;;;;17.13;6.55;;;4.80;99.90;;;;;;5029448;28;20034;-52
2022/04/10 07:18:26;;;;;;;13.55;6.38;;;4.90;99.90;;;;;;5029802;28;20113;-52
2022/04/10 07:20:52;;;;;;;17.65;6.97;;;4.90;99.90;;;;;;5029425;28;20483;-52
2022/04/10 07:26:06;;;;;;;;;;;5.10;99.90;;;;;;5029782;28;20392;-53
2022/04/10 07:28:32;;;;;;;12.27;5.68;;;5.20;99.90;;;;;;5029509;28;19909;-52
2022/04/10 07:30:58;;;;;;;13.30;6.50;;;5.20;99.90;;;;;;5029479;28;20025;-52
2022/04/10 07:33:24;;;;;;;16.25;6.30;;;5.40;99.90;;;;;;5029142;28;20025;-52
2022/04/10 07:35:50;;;;;;;14.52;5.45;;;5.40;99.90;;;;;;5029311;28;20103;-53
2022/04/10 07:38:17;;;;;;;13.30;5.43;;;5.50;99.90;;;;;;5029498;28;20029;-51
2022/04/10 07:40:43;;;;;;;16.77;6.53;;;5.60;99.90;;;;;;5029323;28;20457;-51
2022/04/10 07:43:09;;;;;;;11.25;4.57;;;5.60;99.90;;;;;;5027551;28;20071;-51
2022/04/10 07:48:22;;;;;;;10.00;5.13;;;5.60;99.90;;;;;;5029546;28;20048;-51
2022/04/10 07:50:48;;;;;;;13.77;5.38;;;5.80;99.90;;;;;;5029285;28;20049;-52
2022/04/10 07:53:14;;;;;;;10.88;5.03;;;6.00;99.90;;;;;;5027293;28;20430;-52
2022/04/10 07:55:40;;;;;;;10.63;3.70;;;6.20;99.90;;;;;;5028348;28;20060;-51
2022/04/10 07:58:05;;;;;;;10.23;4.00;;;6.40;99.90;;;;;;5029051;28;20026;-52
2022/04/10 08:00:34;;;;;;;8.75;3.40;;;6.40;99.90;;;;;;5029013;28;20044;-52
2022/04/10 08:03:02;;;;;;;9.30;3.75;;;6.20;99.90;;;;;;5028964;28;20018;-51
2022/04/10 08:05:28;;;;;;;12.32;3.28;;;6.10;99.90;;;;;;5027417;28;20033;-53
2022/04/10 08:07:57;;;;;;;17.95;4.13;;;6.00;99.90;;;;;;5028782;28;20117;-51
2022/04/10 08:10:24;;;;;;;8.48;2.75;;;6.00;99.90;;;;;;5029032;28;20040;-53
2022/04/10 08:12:51;;;;;;;12.43;3.85;;;6.00;99.90;;;;;;5028775;28;20108;-52
2022/04/10 08:15:17;;;;;;;12.88;5.05;;;6.00;99.90;;;;;;5027169;28;20083;-52
2022/04/10 08:17:43;;;;;;;7.68;3.13;;;6.10;99.90;;;;;;5028485;28;20672;-53
2022/04/10 08:20:09;;;;;;;11.60;3.58;;;6.10;99.90;;;;;;5028683;28;20026;-53
2022/04/10 08:22:36;;;;;;;14.43;5.78;;;6.00;99.90;;;;;;5027201;28;20116;-51
2022/04/10 08:25:06;;;;;;;37.22;14.30;;;6.20;99.90;;;;;;5028722;28;20033;-54
2022/04/10 08:27:32;;;;;;;39.92;16.17;;;6.30;99.90;;;;;;5028511;28;20049;-53
2022/04/10 08:29:58;;;;;;;24.20;8.98;;;6.50;99.90;;;;;;5028596;28;20432;-51
2022/04/10 08:32:24;;;;;;;20.30;7.87;;;6.60;99.90;;;;;;5028193;28;20026;-52
2022/04/10 08:34:50;;;;;;;23.73;8.85;;;6.50;99.90;;;;;;5031109;28;20025;-52
2022/04/10 08:37:16;;;;;;;9.77;4.28;;;6.50;99.90;;;;;;5036969;28;20028;-51
2022/04/10 08:39:42;;;;;;;8.98;3.58;;;6.60;99.90;;;;;;5038225;28;20025;-51
2022/04/10 08:42:10;;;;;;;9.40;4.40;;;6.60;99.90;;;;;;5038888;28;20068;-51
2022/04/10 08:44:37;;;;;;;17.27;6.18;;;6.70;99.90;;;;;;5034517;28;20116;-51
2022/04/10 08:47:03;;;;;;;14.07;5.82;;;6.80;99.90;;;;;;5039463;28;20044;-52
2022/04/10 08:49:29;;;;;;;13.82;5.43;;;6.80;99.90;;;;;;5039520;28;20022;-52
2022/04/10 08:51:56;;;;;;;9.57;3.05;;;6.80;99.90;;;;;;5026479;28;20034;-52
2022/04/10 08:54:23;;;;;;;8.68;2.83;;;6.80;99.90;;;;;;5016934;28;20516;-52
2022/04/10 08:56:52;;;;;;;9.50;3.25;;;6.80;99.90;;;;;;5021664;28;20073;-52
2022/04/10 08:59:19;;;;;;;8.05;3.75;;;6.80;99.90;;;;;;5017234;28;20533;-52
2022/04/10 09:01:45;;;;;;;12.35;4.15;;;6.70;99.90;;;;;;5001037;28;20025;-52
2022/04/10 09:04:12;;;;;;;8.43;3.35;;;6.70;99.90;;;;;;5017696;28;20030;-52
2022/04/10 09:06:40;;;;;;;7.65;3.33;;;6.70;99.90;;;;;;5020199;28;20041;-52
2022/04/10 09:09:16;;;;;;;10.57;3.35;;;6.60;99.90;;;;;;5022846;28;20043;-52
2022/04/10 09:11:43;;;;;;;11.98;3.83;;;6.60;99.90;;;;;;5022637;28;20374;-52
2022/04/10 09:14:09;;;;;;;9.05;3.63;;;6.70;99.90;;;;;;5021132;28;20018;-52
2022/04/10 09:16:35;;;;;;;8.90;3.03;;;6.70;99.90;;;;;;5019939;28;20489;-49
2022/04/10 09:19:09;;;;;;;7.53;2.90;;;6.60;99.90;;;;;;5022607;28;20032;-51
2022/04/10 09:21:38;;;;;;;9.88;3.15;;;6.60;99.90;;;;;;5022730;28;20022;-51
2022/04/10 09:24:05;;;;;;;10.35;4.07;;;6.60;99.90;;;;;;5004434;28;20045;-51
2022/04/10 09:26:47;;;;;;;11.77;5.35;;;6.60;99.90;;;;;;5019595;28;20053;-55
2022/04/10 09:29:15;;;;;;;13.30;6.68;;;6.50;99.90;;;;;;5022589;28;20562;-50
2022/04/10 09:31:41;;;;;;;13.55;5.90;;;6.50;99.90;;;;;;5022495;28;20033;-51
2022/04/10 09:34:25;;;;;;;11.85;6.20;;;6.60;99.90;;;;;;5022615;28;20039;-49
2022/04/10 09:37:03;;;;;;;11.48;4.43;;;6.60;99.90;;;;;;4994963;28;20117;-51
2022/04/10 09:39:29;;;;;;;12.23;4.50;;;6.60;99.90;;;;;;5022381;28;20095;-52
2022/04/10 09:42:12;;;;;;;13.38;4.20;;;6.50;99.90;;;;;;5021451;28;20022;-51
2022/04/10 09:44:41;;;;;;;15.63;6.15;;;6.60;99.90;;;;;;5022305;28;20059;-51
2022/04/10 09:47:10;;;;;;;10.45;3.53;;;6.60;99.90;;;;;;5022572;28;20044;-52
2022/04/10 09:49:41;;;;;;;12.85;3.55;;;6.60;99.90;;;;;;5020530;28;20112;-52
2022/04/10 09:52:11;;;;;;;11.75;4.82;;;6.60;99.90;;;;;;5022269;28;20021;-51
2022/04/10 09:54:50;;;;;;;9.68;3.08;;;6.50;99.90;;;;;;5021281;28;20105;-51
2022/04/10 09:57:20;;;;;;;11.50;4.40;;;6.50;99.90;;;;;;5024701;28;20048;-51
2022/04/10 09:59:48;;;;;;;12.80;4.00;;;6.40;99.90;;;;;;5021868;28;20060;-52
2022/04/10 10:02:15;;;;;;;16.17;5.18;;;6.50;99.90;;;;;;5020867;28;20026;-51
2022/04/10 10:04:42;;;;;;;18.85;7.53;;;6.40;99.90;;;;;;5019857;28;20047;-52
2022/04/10 10:07:27;;;;;;;10.05;4.78;;;6.50;99.90;;;;;;5018448;28;20132;-51
2022/04/10 10:09:56;;;;;;;11.10;4.55;;;6.60;99.90;;;;;;5021784;28;20018;-52
2022/04/10 10:12:22;;;;;;;10.43;5.03;;;6.70;99.90;;;;;;5021435;28;20033;-51
2022/04/10 10:14:49;;;;;;;11.83;5.00;;;6.90;99.90;;;;;;5019748;28;20029;-52
2022/04/10 10:17:16;;;;;;;10.40;4.05;;;7.10;99.90;;;;;;5019939;28;20028;-52
2022/04/10 10:19:42;;;;;;;;;;;7.10;99.90;;;;;;5022073;28;20025;-52
2022/04/10 10:22:17;;;;;;;10.68;4.40;;;7.30;99.90;;;;;;5019532;28;19909;-51
2022/04/10 10:24:52;;;;;;;17.02;6.80;;;7.40;99.90;;;;;;5001419;28;20020;-52
2022/04/10 10:27:45;;;;;;;11.77;5.80;;;7.40;99.90;;;;;;5019459;28;20805;-53
2022/04/10 10:30:43;;;;;;;13.30;5.50;;;7.30;99.90;;;;;;5021306;28;20393;-51
2022/04/10 10:33:19;;;;;;;12.48;4.10;;;7.20;99.90;;;;;;5021085;28;20072;-52
2022/04/10 10:35:48;;;;;;;7.00;2.40;;;7.10;99.90;;;;;;5021155;28;20024;-52
2022/04/10 10:38:27;;;;;;;8.20;3.13;;;7.00;99.90;;;;;;5020011;28;20075;-52
2022/04/10 10:41:11;;;;;;;8.30;3.85;;;7.00;99.90;;;;;;5021351;28;20030;-51
2022/04/10 10:43:36;;;;;;;9.65;3.78;;;6.90;99.90;;;;;;5021085;28;20022;-50
2022/04/10 10:46:18;;;;;;;13.50;4.25;;;6.80;99.90;;;;;;5020944;28;20041;-52
2022/04/10 10:48:44;;;;;;;9.73;4.50;;;6.80;99.90;;;;;;5003121;28;20179;-52
2022/04/10 10:51:09;;;;;;;12.85;6.18;;;6.70;99.90;;;;;;5019155;28;20086;-53
2022/04/10 10:53:44;;;;;;;13.35;6.38;;;6.70;99.90;;;;;;5019843;28;20104;-50
2022/04/10 10:56:31;;;;;;;11.77;6.25;;;6.70;99.90;;;;;;5023809;28;20057;-50
2022/04/10 10:59:17;;;;;;;12.38;6.53;;;6.60;99.90;;;;;;5018535;28;20044;-53
2022/04/10 11:02:17;;;;;;;17.27;6.45;;;6.60;99.90;;;;;;5020232;28;20044;-51
2022/04/10 11:04:50;;;;;;;12.05;7.32;;;6.50;99.90;;;;;;5014013;28;20048;-51
2022/04/10 11:07:19;;;;;;;16.25;6.82;;;6.30;99.90;;;;;;5000925;28;20037;-51
2022/04/10 11:10:00;;;;;;;11.70;5.80;;;6.30;99.90;;;;;;5020391;28;20111;-53
2022/04/10 11:12:37;;;;;;;11.35;5.60;;;6.10;99.90;;;;;;5013719;28;20038;-52
2022/04/10 11:15:20;;;;;;;12.73;5.53;;;6.00;99.90;;;;;;5008500;28;20022;-52
2022/04/10 11:17:49;;;;;;;17.98;6.93;;;5.90;99.90;;;;;;5008759;28;20453;-51
2022/04/10 11:20:17;;;;;;;14.13;6.00;;;5.90;99.90;;;;;;5008561;28;20030;-53
2022/04/10 11:22:57;;;;;;;14.90;6.20;;;5.90;99.90;;;;;;5009807;28;20030;-52
2022/04/10 11:25:26;;;;;;;13.60;6.47;;;5.90;99.90;;;;;;5009399;28;20057;-52
2022/04/10 11:28:00;;;;;;;14.93;6.45;;;5.80;99.90;;;;;;5008503;28;20068;-52
2022/04/10 11:30:29;;;;;;;14.30;7.72;;;5.90;99.90;;;;;;5007523;28;20022;-52
2022/04/10 11:33:03;;;;;;;14.55;7.03;;;5.90;99.90;;;;;;5009579;28;20030;-52
2022/04/10 11:35:34;;;;;;;16.40;8.65;;;5.90;99.90;;;;;;5009535;28;20385;-52
2022/04/10 11:38:02;;;;;;;15.43;8.18;;;6.10;99.90;;;;;;5009626;28;20029;-53
2022/04/10 11:40:38;;;;;;;16.23;8.95;;;6.40;99.90;;;;;;5008134;28;20026;-51
2022/04/10 11:43:07;;;;;;;18.70;8.70;;;6.80;99.90;;;;;;5009216;28;20051;-51
2022/04/10 11:45:33;;;;;;;14.80;9.30;;;7.10;99.90;;;;;;5009329;28;20045;-51
2022/04/10 11:48:00;;;;;;;13.65;6.85;;;7.30;99.90;;;;;;5009563;28;20145;-52
2022/04/10 11:50:27;;;;;;;11.88;6.15;;;7.30;99.90;;;;;;5009219;28;20061;-51
2022/04/10 11:53:04;;;;;;;8.68;4.88;;;7.40;99.90;;;;;;5008857;28;20813;-51
2022/04/10 11:55:40;;;;;;;11.38;5.43;;;7.30;99.90;;;;;;5009730;28;20440;-51
2022/04/10 11:58:25;;;;;;;11.63;5.90;;;7.30;99.90;;;;;;5028796;28;20129;-50
2022/04/10 12:00:54;;;;;;;11.10;5.07;;;7.20;99.90;;;;;;5028535;28;20438;-53
2022/04/10 12:03:23;;;;;;;12.60;6.70;;;7.10;99.90;;;;;;5028757;28;20025;-51
2022/04/10 12:05:49;;;;;;;15.10;7.97;;;7.10;99.90;;;;;;5028731;28;20031;-53
2022/04/10 12:08:15;;;;;;;16.45;7.53;;;7.00;99.90;;;;;;5028536;28;20469;-51
2022/04/10 12:10:41;;;;;;;13.57;8.32;;;6.70;99.90;;;;;;5028787;28;20447;-53
2022/04/10 12:13:10;;;;;;;17.50;9.40;;;6.70;99.90;;;;;;5028533;28;20112;-52
2022/04/10 12:15:35;;;;;;;17.33;9.50;;;6.60;99.90;;;;;;5028713;28;20028;-52
2022/04/10 12:18:08;;;;;;;14.43;8.98;;;6.60;99.90;;;;;;5028499;28;20582;-52
2022/04/10 12:20:39;;;;;;;21.10;10.00;;;6.70;99.90;;;;;;5028974;28;20395;-52
2022/04/10 12:23:35;;;;;;;15.80;9.48;;;6.80;99.90;;;;;;5028565;28;20021;-52
2022/04/10 12:26:02;;;;;;;14.48;7.50;;;7.00;99.90;;;;;;5015710;28;20051;-52
2022/04/10 12:28:28;;;;;;;;;;;6.90;99.90;;;;;;5029109;28;20029;-51
2022/04/10 12:30:57;;;;;;;17.75;7.35;;;6.90;99.90;;;;;;5010676;28;20384;-53
2022/04/10 12:33:23;;;;;;;18.27;10.07;;;6.90;99.90;;;;;;5028494;28;20055;-51
2022/04/10 12:35:49;;;;;;;10.60;4.85;;;7.30;99.90;;;;;;5028683;28;20473;-53
2022/04/10 12:38:16;;;;;;;10.50;4.50;;;7.90;99.90;;;;;;5028419;28;20035;-53
2022/04/10 12:40:42;;;;;;;10.30;4.22;;;8.30;99.90;;;;;;5030328;28;20040;-52
2022/04/10 12:43:09;;;;;;;8.95;4.38;;;8.20;99.90;;;;;;5032379;28;20029;-52
2022/04/10 12:45:37;;;;;;;9.40;3.72;;;8.30;99.90;;;;;;5032797;28;20026;-53
2022/04/10 12:48:23;;;;;;;10.45;4.32;;;8.40;99.90;;;;;;5014395;28;20034;-52
2022/04/10 12:51:09;;;;;;;11.93;4.85;;;8.30;99.90;;;;;;5032551;28;20064;-53
2022/04/10 12:53:35;;;;;;;10.52;5.22;;;8.40;99.90;;;;;;5032282;28;20025;-52